sensor_id;sensor_type;location;lat;lon;timestamp;pressure;altitude;pressure_sealevel;temperature;humidity
52651;BME280;38537;47.226;39.702;2023-06-10T00:01:02;100171.53;;;21.53;46.14
52651;BME280;38537;47.226;39.702;2023-06-10T00:03:29;100183.03;;;21.64;46.05
52651;BME280;38537;47.226;39.702;2023-06-10T00:05:56;100160.06;;;21.46;46.06
52651;BME280;38537;47.226;39.702;2023-06-10T00:08:24;100160.88;;;21.46;46.01
52651;BME280;38537;47.226;39.702;2023-06-10T00:10:51;100175.19;;;21.53;46.16
52651;BME280;38537;47.226;39.702;2023-06-10T00:13:18;100161.72;;;21.47;46.20
52651;BME280;38537;47.226;39.702;2023-06-10T00:15:46;100164.16;;;21.48;46.10
52651;BME280;38537;47.226;39.702;2023-06-10T00:18:13;100159.19;;;21.38;46.49
52651;BME280;38537;47.226;39.702;2023-06-10T00:20:43;100135.44;;;21.24;46.48
52651;BME280;38537;47.226;39.702;2023-06-10T00:23:10;100177.47;;;21.41;46.70
52651;BME280;38537;47.226;39.702;2023-06-10T00:25:38;100147.63;;;21.24;46.52
52651;BME280;38537;47.226;39.702;2023-06-10T00:28:05;100188.47;;;21.46;46.63
52651;BME280;38537;47.226;39.702;2023-06-10T00:30:33;100165.47;;;21.25;46.88
52651;BME280;38537;47.226;39.702;2023-06-10T00:33:00;100162.19;;;21.23;46.87
52651;BME280;38537;47.226;39.702;2023-06-10T00:35:28;100186.72;;;21.34;46.94
52651;BME280;38537;47.226;39.702;2023-06-10T00:37:55;100165.38;;;21.17;47.17
52651;BME280;38537;47.226;39.702;2023-06-10T00:40:23;100160.47;;;21.14;47.09
52651;BME280;38537;47.226;39.702;2023-06-10T00:42:51;100178.47;;;21.26;47.35
52651;BME280;38537;47.226;39.702;2023-06-10T00:45:21;100148.50;;;21.02;47.74
52651;BME280;38537;47.226;39.702;2023-06-10T00:47:48;100150.63;;;21.08;47.42
52651;BME280;38537;47.226;39.702;2023-06-10T00:50:15;100126.09;;;20.93;47.35
52651;BME280;38537;47.226;39.702;2023-06-10T00:52:44;100175.34;;;21.34;47.24
52651;BME280;38537;47.226;39.702;2023-06-10T00:55:13;100172.25;;;21.16;47.36
52651;BME280;38537;47.226;39.702;2023-06-10T00:57:42;100171.44;;;21.16;47.79
52651;BME280;38537;47.226;39.702;2023-06-10T01:00:12;100170.94;;;21.10;47.63
52651;BME280;38537;47.226;39.702;2023-06-10T01:02:40;100158.81;;;21.13;47.44
52651;BME280;38537;47.226;39.702;2023-06-10T01:05:08;100183.94;;;21.38;47.45
52651;BME280;38537;47.226;39.702;2023-06-10T01:07:44;100171.69;;;21.34;47.34
52651;BME280;38537;47.226;39.702;2023-06-10T01:10:24;100138.19;;;21.16;47.48
52651;BME280;38537;47.226;39.702;2023-06-10T01:13:05;100158.97;;;21.20;47.66
52651;BME280;38537;47.226;39.702;2023-06-10T01:15:35;100178.59;;;21.33;47.24
52651;BME280;38537;47.226;39.702;2023-06-10T01:18:05;100149.63;;;21.20;46.97
52651;BME280;38537;47.226;39.702;2023-06-10T01:20:37;100158.97;;;21.24;46.87
52651;BME280;38537;47.226;39.702;2023-06-10T01:23:08;100126.44;;;21.18;46.93
52651;BME280;38537;47.226;39.702;2023-06-10T01:25:40;100146.94;;;21.34;46.80
52651;BME280;38537;47.226;39.702;2023-06-10T01:33:37;100175.63;;;21.55;46.50
52651;BME280;38537;47.226;39.702;2023-06-10T01:36:06;100173.34;;;21.68;46.11
52651;BME280;38537;47.226;39.702;2023-06-10T01:38:46;100164.38;;;21.66;46.55
52651;BME280;38537;47.226;39.702;2023-06-10T01:41:16;100158.41;;;21.75;45.82
52651;BME280;38537;47.226;39.702;2023-06-10T01:43:45;100155.50;;;21.71;46.00
52651;BME280;38537;47.226;39.702;2023-06-10T01:46:14;100160.38;;;21.71;46.03
52651;BME280;38537;47.226;39.702;2023-06-10T01:48:42;100130.94;;;21.52;46.17
52651;BME280;38537;47.226;39.702;2023-06-10T01:51:10;100153.72;;;21.56;46.21
52651;BME280;38537;47.226;39.702;2023-06-10T01:53:38;100147.59;;;21.54;46.31
52651;BME280;38537;47.226;39.702;2023-06-10T01:56:05;100155.25;;;21.50;46.37
52651;BME280;38537;47.226;39.702;2023-06-10T01:58:32;100161.81;;;21.54;46.43
52651;BME280;38537;47.226;39.702;2023-06-10T02:01:00;100169.41;;;21.43;47.03
52651;BME280;38537;47.226;39.702;2023-06-10T02:03:27;100175.47;;;21.45;46.87
52651;BME280;38537;47.226;39.702;2023-06-10T02:05:55;100163.22;;;21.37;46.85
52651;BME280;38537;47.226;39.702;2023-06-10T02:08:22;100168.97;;;21.41;46.62
52651;BME280;38537;47.226;39.702;2023-06-10T02:10:50;100170.50;;;21.35;46.97
52651;BME280;38537;47.226;39.702;2023-06-10T02:13:17;100174.50;;;21.30;47.30
52651;BME280;38537;47.226;39.702;2023-06-10T02:15:45;100175.63;;;21.26;47.50
52651;BME280;38537;47.226;39.702;2023-06-10T02:18:12;100179.34;;;21.30;47.32
52651;BME280;38537;47.226;39.702;2023-06-10T02:20:42;100181.25;;;21.22;47.77
52651;BME280;38537;47.226;39.702;2023-06-10T02:23:09;100159.59;;;21.10;47.65
52651;BME280;38537;47.226;39.702;2023-06-10T02:25:37;100168.44;;;21.32;47.25
52651;BME280;38537;47.226;39.702;2023-06-10T02:28:04;100151.06;;;21.10;47.60
52651;BME280;38537;47.226;39.702;2023-06-10T02:30:33;100169.97;;;21.26;47.49
52651;BME280;38537;47.226;39.702;2023-06-10T02:33:01;100152.91;;;21.26;47.48
52651;BME280;38537;47.226;39.702;2023-06-10T02:35:29;100177.88;;;21.39;47.17
52651;BME280;38537;47.226;39.702;2023-06-10T02:37:57;100167.66;;;21.35;47.14
52651;BME280;38537;47.226;39.702;2023-06-10T02:40:25;100141.09;;;21.20;47.64
52651;BME280;38537;47.226;39.702;2023-06-10T02:42:54;100155.66;;;21.18;47.69
52651;BME280;38537;47.226;39.702;2023-06-10T02:45:22;100150.03;;;21.22;47.63
52651;BME280;38537;47.226;39.702;2023-06-10T02:47:50;100184.16;;;21.26;47.73
52651;BME280;38537;47.226;39.702;2023-06-10T02:50:21;100170.66;;;21.19;48.01
52651;BME280;38537;47.226;39.702;2023-06-10T02:52:58;100188.19;;;21.21;48.08
52651;BME280;38537;47.226;39.702;2023-06-10T02:55:28;100173.88;;;21.17;48.13
52651;BME280;38537;47.226;39.702;2023-06-10T02:58:02;100168.53;;;21.12;48.46
52651;BME280;38537;47.226;39.702;2023-06-10T03:00:31;100131.34;;;20.91;48.30
52651;BME280;38537;47.226;39.702;2023-06-10T03:02:59;100149.00;;;21.07;48.39
52651;BME280;38537;47.226;39.702;2023-06-10T03:05:35;100162.81;;;21.09;48.55
52651;BME280;38537;47.226;39.702;2023-06-10T03:08:05;100181.44;;;21.06;48.34
52651;BME280;38537;47.226;39.702;2023-06-10T03:10:34;100166.53;;;20.86;48.83
52651;BME280;38537;47.226;39.702;2023-06-10T03:13:05;100151.84;;;20.81;48.90
52651;BME280;38537;47.226;39.702;2023-06-10T03:15:32;100141.66;;;20.76;48.98
52651;BME280;38537;47.226;39.702;2023-06-10T03:18:04;100154.69;;;20.81;49.13
52651;BME280;38537;47.226;39.702;2023-06-10T03:20:34;100183.25;;;20.92;49.18
52651;BME280;38537;47.226;39.702;2023-06-10T03:23:06;100157.91;;;20.79;49.41
52651;BME280;38537;47.226;39.702;2023-06-10T03:25:35;100152.63;;;20.78;49.35
52651;BME280;38537;47.226;39.702;2023-06-10T03:28:03;100154.47;;;20.67;49.79
52651;BME280;38537;47.226;39.702;2023-06-10T03:30:32;100181.03;;;20.78;49.91
52651;BME280;38537;47.226;39.702;2023-06-10T03:33:00;100180.59;;;20.76;49.85
52651;BME280;38537;47.226;39.702;2023-06-10T03:35:29;100175.34;;;20.78;49.84
52651;BME280;38537;47.226;39.702;2023-06-10T03:38:00;100169.56;;;20.71;50.04
52651;BME280;38537;47.226;39.702;2023-06-10T03:40:28;100176.16;;;20.78;50.03
52651;BME280;38537;47.226;39.702;2023-06-10T03:42:58;100172.06;;;20.76;49.64
52651;BME280;38537;47.226;39.702;2023-06-10T03:45:27;100172.88;;;20.76;49.75
52651;BME280;38537;47.226;39.702;2023-06-10T03:47:56;100178.44;;;20.69;50.09
52651;BME280;38537;47.226;39.702;2023-06-10T03:50:31;100143.44;;;20.62;49.85
52651;BME280;38537;47.226;39.702;2023-06-10T03:52:59;100166.03;;;20.81;49.59
52651;BME280;38537;47.226;39.702;2023-06-10T03:55:27;100165.84;;;20.93;49.23
52651;BME280;38537;47.226;39.702;2023-06-10T03:57:57;100144.88;;;20.75;49.03
52651;BME280;38537;47.226;39.702;2023-06-10T04:00:32;100125.53;;;20.58;49.19
52651;BME280;38537;47.226;39.702;2023-06-10T04:03:08;100140.72;;;20.69;49.59
52651;BME280;38537;47.226;39.702;2023-06-10T04:05:41;100133.84;;;20.70;49.01
52651;BME280;38537;47.226;39.702;2023-06-10T04:08:09;100155.94;;;20.83;48.96
52651;BME280;38537;47.226;39.702;2023-06-10T04:10:44;100156.38;;;20.85;49.23
52651;BME280;38537;47.226;39.702;2023-06-10T04:13:12;100126.81;;;20.86;49.03
52651;BME280;38537;47.226;39.702;2023-06-10T04:15:51;100151.41;;;21.05;48.73
52651;BME280;38537;47.226;39.702;2023-06-10T04:18:20;100078.69;;;20.67;47.51
52651;BME280;38537;47.226;39.702;2023-06-10T04:20:54;100156.97;;;21.25;47.46
52651;BME280;38537;47.226;39.702;2023-06-10T04:23:23;100153.63;;;21.19;47.13
52651;BME280;38537;47.226;39.702;2023-06-10T04:25:51;100147.34;;;21.33;47.04
52651;BME280;38537;47.226;39.702;2023-06-10T04:28:25;100145.38;;;21.37;46.52
52651;BME280;38537;47.226;39.702;2023-06-10T04:30:55;100100.38;;;21.12;46.56
52651;BME280;38537;47.226;39.702;2023-06-10T04:33:24;100140.94;;;21.39;46.40
52651;BME280;38537;47.226;39.702;2023-06-10T04:35:52;100156.78;;;21.44;46.47
52651;BME280;38537;47.226;39.702;2023-06-10T04:38:22;100142.19;;;21.42;46.64
52651;BME280;38537;47.226;39.702;2023-06-10T04:40:50;100139.72;;;21.40;46.80
52651;BME280;38537;47.226;39.702;2023-06-10T04:43:20;100119.38;;;21.35;46.83
52651;BME280;38537;47.226;39.702;2023-06-10T04:45:49;100144.31;;;21.52;46.99
52651;BME280;38537;47.226;39.702;2023-06-10T04:48:17;100149.78;;;21.68;47.04
52651;BME280;38537;47.226;39.702;2023-06-10T04:50:46;100129.06;;;21.64;47.02
52651;BME280;38537;47.226;39.702;2023-06-10T04:53:15;100159.34;;;21.86;47.05
52651;BME280;38537;47.226;39.702;2023-06-10T04:55:45;100124.69;;;21.73;47.30
52651;BME280;38537;47.226;39.702;2023-06-10T04:58:14;100116.66;;;21.82;47.22
52651;BME280;38537;47.226;39.702;2023-06-10T05:00:42;100141.25;;;22.01;47.31
52651;BME280;38537;47.226;39.702;2023-06-10T05:03:11;100055.09;;;21.57;47.29
52651;BME280;38537;47.226;39.702;2023-06-10T05:05:39;100111.91;;;21.97;47.31
52651;BME280;38537;47.226;39.702;2023-06-10T05:08:07;100129.47;;;22.03;47.63
52651;BME280;38537;47.226;39.702;2023-06-10T05:10:38;100099.19;;;21.80;48.20
52651;BME280;38537;47.226;39.702;2023-06-10T05:13:06;100120.22;;;22.13;48.14
52651;BME280;38537;47.226;39.702;2023-06-10T05:15:33;100132.84;;;22.15;48.12
52651;BME280;38537;47.226;39.702;2023-06-10T05:18:01;100138.50;;;22.12;48.37
52651;BME280;38537;47.226;39.702;2023-06-10T05:20:32;100136.53;;;22.19;48.19
52651;BME280;38537;47.226;39.702;2023-06-10T05:23:00;100102.69;;;22.04;48.06
52651;BME280;38537;47.226;39.702;2023-06-10T05:25:30;100117.47;;;22.23;48.05
52651;BME280;38537;47.226;39.702;2023-06-10T05:27:58;100131.78;;;22.34;48.05
52651;BME280;38537;47.226;39.702;2023-06-10T05:30:29;100129.38;;;22.36;48.41
52651;BME280;38537;47.226;39.702;2023-06-10T05:33:05;100152.56;;;22.38;48.85
52651;BME280;38537;47.226;39.702;2023-06-10T05:35:32;100092.50;;;22.03;48.87
52651;BME280;38537;47.226;39.702;2023-06-10T05:38:00;100125.97;;;22.20;49.14
52651;BME280;38537;47.226;39.702;2023-06-10T05:40:32;100145.53;;;22.25;49.81
52651;BME280;38537;47.226;39.702;2023-06-10T05:43:00;100114.84;;;22.01;49.64
52651;BME280;38537;47.226;39.702;2023-06-10T05:45:27;100147.13;;;22.22;49.56
52651;BME280;38537;47.226;39.702;2023-06-10T05:47:54;100127.53;;;22.14;49.57
52651;BME280;38537;47.226;39.702;2023-06-10T05:50:24;100141.41;;;22.19;50.05
52651;BME280;38537;47.226;39.702;2023-06-10T05:52:51;100126.28;;;22.11;50.06
52651;BME280;38537;47.226;39.702;2023-06-10T05:55:20;100115.34;;;22.13;49.92
52651;BME280;38537;47.226;39.702;2023-06-10T05:57:58;100142.78;;;22.36;49.79
52651;BME280;38537;47.226;39.702;2023-06-10T06:00:26;100112.63;;;22.24;49.52
52651;BME280;38537;47.226;39.702;2023-06-10T06:02:54;100106.44;;;22.15;49.51
52651;BME280;38537;47.226;39.702;2023-06-10T06:05:24;100126.59;;;22.43;49.12
52651;BME280;38537;47.226;39.702;2023-06-10T06:07:52;100111.50;;;22.39;48.79
52651;BME280;38537;47.226;39.702;2023-06-10T06:10:20;100108.38;;;22.51;48.65
52651;BME280;38537;47.226;39.702;2023-06-10T06:12:47;100098.09;;;22.40;48.44
52651;BME280;38537;47.226;39.702;2023-06-10T06:15:14;100090.41;;;22.44;48.33
52651;BME280;38537;47.226;39.702;2023-06-10T06:17:42;100062.00;;;22.51;48.18
52651;BME280;38537;47.226;39.702;2023-06-10T06:20:09;100107.81;;;22.90;47.76
52651;BME280;38537;47.226;39.702;2023-06-10T06:22:37;100126.66;;;23.09;47.64
52651;BME280;38537;47.226;39.702;2023-06-10T06:25:05;100103.84;;;23.05;47.46
52651;BME280;38537;47.226;39.702;2023-06-10T06:27:33;100127.13;;;23.25;46.87
52651;BME280;38537;47.226;39.702;2023-06-10T06:30:00;100086.38;;;23.10;46.77
52651;BME280;38537;47.226;39.702;2023-06-10T06:32:30;100119.50;;;23.50;46.36
52651;BME280;38537;47.226;39.702;2023-06-10T06:34:58;100092.97;;;23.39;46.06
52651;BME280;38537;47.226;39.702;2023-06-10T06:37:26;100101.97;;;23.48;46.40
52651;BME280;38537;47.226;39.702;2023-06-10T06:40:15;100125.31;;;23.75;45.32
52651;BME280;38537;47.226;39.702;2023-06-10T06:42:42;100102.47;;;23.82;45.43
52651;BME280;38537;47.226;39.702;2023-06-10T06:45:36;100095.19;;;23.92;45.20
52651;BME280;38537;47.226;39.702;2023-06-10T06:48:05;100094.38;;;23.99;44.50
52651;BME280;38537;47.226;39.702;2023-06-10T06:50:33;100094.38;;;24.06;44.31
52651;BME280;38537;47.226;39.702;2023-06-10T06:53:01;100120.91;;;24.31;43.33
52651;BME280;38537;47.226;39.702;2023-06-10T06:55:28;100095.25;;;24.24;43.46
52651;BME280;38537;47.226;39.702;2023-06-10T06:57:55;100127.03;;;24.40;42.49
52651;BME280;38537;47.226;39.702;2023-06-10T07:00:24;100086.66;;;24.17;42.38
52651;BME280;38537;47.226;39.702;2023-06-10T07:02:51;100070.75;;;24.02;41.99
52651;BME280;38537;47.226;39.702;2023-06-10T07:05:20;100103.78;;;24.31;42.60
52651;BME280;38537;47.226;39.702;2023-06-10T07:07:48;100060.97;;;24.10;42.66
52651;BME280;38537;47.226;39.702;2023-06-10T07:10:23;100093.19;;;24.28;42.58
52651;BME280;38537;47.226;39.702;2023-06-10T07:12:54;100067.06;;;24.12;42.83
52651;BME280;38537;47.226;39.702;2023-06-10T07:15:22;100031.63;;;23.91;42.72
52651;BME280;38537;47.226;39.702;2023-06-10T07:17:49;100030.78;;;23.87;42.96
52651;BME280;38537;47.226;39.702;2023-06-10T07:20:19;100105.84;;;24.34;42.93
52651;BME280;38537;47.226;39.702;2023-06-10T07:22:46;100091.16;;;24.29;42.79
52651;BME280;38537;47.226;39.702;2023-06-10T07:25:15;100090.34;;;24.24;42.90
52651;BME280;38537;47.226;39.702;2023-06-10T07:27:42;100082.97;;;24.20;42.62
52651;BME280;38537;47.226;39.702;2023-06-10T07:30:10;100080.53;;;24.22;42.63
52651;BME280;38537;47.226;39.702;2023-06-10T07:32:38;100063.81;;;24.17;42.67
52651;BME280;38537;47.226;39.702;2023-06-10T07:35:08;100067.91;;;24.23;41.67
52651;BME280;38537;47.226;39.702;2023-06-10T07:37:37;100070.34;;;24.28;41.93
52651;BME280;38537;47.226;39.702;2023-06-10T07:40:08;100049.16;;;24.29;42.12
52651;BME280;38537;47.226;39.702;2023-06-10T07:42:35;100102.16;;;24.66;41.65
52651;BME280;38537;47.226;39.702;2023-06-10T07:45:05;100079.72;;;24.68;41.67
52651;BME280;38537;47.226;39.702;2023-06-10T07:47:39;100007.56;;;24.35;41.67
52651;BME280;38537;47.226;39.702;2023-06-10T07:50:09;100079.28;;;24.69;41.15
52651;BME280;38537;47.226;39.702;2023-06-10T07:52:36;100058.50;;;24.65;41.46
52651;BME280;38537;47.226;39.702;2023-06-10T07:55:04;100067.41;;;24.85;41.52
52651;BME280;38537;47.226;39.702;2023-06-10T07:57:32;100073.94;;;24.89;41.16
52651;BME280;38537;47.226;39.702;2023-06-10T08:00:03;100064.16;;;24.86;41.01
52651;BME280;38537;47.226;39.702;2023-06-10T08:02:39;100056.41;;;24.87;41.03
52651;BME280;38537;47.226;39.702;2023-06-10T08:05:06;100083.69;;;24.91;41.00
52651;BME280;38537;47.226;39.702;2023-06-10T08:07:34;100061.25;;;24.90;40.56
52651;BME280;38537;47.226;39.702;2023-06-10T08:10:02;100043.34;;;24.75;40.60
52651;BME280;38537;47.226;39.702;2023-06-10T08:12:32;100069.44;;;24.95;40.62
52651;BME280;38537;47.226;39.702;2023-06-10T08:15:01;100060.03;;;24.91;40.76
52651;BME280;38537;47.226;39.702;2023-06-10T08:17:31;100022.56;;;24.75;40.73
52651;BME280;38537;47.226;39.702;2023-06-10T08:19:59;100052.63;;;25.15;40.73
52651;BME280;38537;47.226;39.702;2023-06-10T08:22:30;100039.56;;;25.14;40.25
52651;BME280;38537;47.226;39.702;2023-06-10T08:24:57;100057.41;;;25.39;39.65
52651;BME280;38537;47.226;39.702;2023-06-10T08:27:25;100076.88;;;25.62;38.52
52651;BME280;38537;47.226;39.702;2023-06-10T08:29:55;100065.03;;;25.67;38.89
52651;BME280;38537;47.226;39.702;2023-06-10T08:32:46;100031.13;;;25.62;39.18
52651;BME280;38537;47.226;39.702;2023-06-10T08:35:13;100024.59;;;25.69;39.06
52651;BME280;38537;47.226;39.702;2023-06-10T08:37:40;100073.44;;;25.95;37.31
52651;BME280;38537;47.226;39.702;2023-06-10T08:40:08;100045.00;;;25.74;37.69
52651;BME280;38537;47.226;39.702;2023-06-10T08:42:43;100049.06;;;25.73;37.50
52651;BME280;38537;47.226;39.702;2023-06-10T08:45:38;100047.38;;;25.79;37.28
52651;BME280;38537;47.226;39.702;2023-06-10T08:48:12;99978.25;;;25.33;36.95
52651;BME280;38537;47.226;39.702;2023-06-10T08:50:43;100009.47;;;25.68;37.59
52651;BME280;38537;47.226;39.702;2023-06-10T08:53:13;100058.22;;;26.06;37.06
52651;BME280;38537;47.226;39.702;2023-06-10T08:55:50;100040.69;;;26.00;36.98
52651;BME280;38537;47.226;39.702;2023-06-10T08:58:20;100051.28;;;26.03;36.08
52651;BME280;38537;47.226;39.702;2023-06-10T09:00:48;100057.38;;;26.09;36.25
52651;BME280;38537;47.226;39.702;2023-06-10T09:03:19;100048.53;;;25.92;36.34
52651;BME280;38537;47.226;39.702;2023-06-10T09:05:51;100034.34;;;25.75;36.14
52651;BME280;38537;47.226;39.702;2023-06-10T09:08:25;99980.56;;;25.48;36.66
52651;BME280;38537;47.226;39.702;2023-06-10T09:10:52;99965.13;;;25.39;36.77
52651;BME280;38537;47.226;39.702;2023-06-10T09:13:23;100054.72;;;25.84;37.03
52651;BME280;38537;47.226;39.702;2023-06-10T09:15:58;100001.06;;;25.36;36.80
52651;BME280;38537;47.226;39.702;2023-06-10T09:18:33;100003.47;;;25.45;37.48
52651;BME280;38537;47.226;39.702;2023-06-10T09:21:01;100006.34;;;25.45;36.78
52651;BME280;38537;47.226;39.702;2023-06-10T09:23:29;100038.50;;;25.59;36.97
52651;BME280;38537;47.226;39.702;2023-06-10T09:25:58;100029.50;;;25.61;36.71
52651;BME280;38537;47.226;39.702;2023-06-10T09:28:29;100025.41;;;25.66;36.90
52651;BME280;38537;47.226;39.702;2023-06-10T09:31:06;100009.91;;;25.59;36.94
52651;BME280;38537;47.226;39.702;2023-06-10T09:33:38;100011.91;;;25.73;36.86
52651;BME280;38537;47.226;39.702;2023-06-10T09:36:08;100053.31;;;26.06;37.14
52651;BME280;38537;47.226;39.702;2023-06-10T09:38:36;100061.69;;;25.79;37.25
52651;BME280;38537;47.226;39.702;2023-06-10T09:41:07;99999.72;;;25.55;37.74
52651;BME280;38537;47.226;39.702;2023-06-10T09:43:41;100037.00;;;26.00;37.66
52651;BME280;38537;47.226;39.702;2023-06-10T09:46:18;100024.31;;;26.01;37.47
52651;BME280;38537;47.226;39.702;2023-06-10T09:48:47;100057.03;;;26.00;37.28
52651;BME280;38537;47.226;39.702;2023-06-10T09:51:15;99996.69;;;25.80;37.88
52651;BME280;38537;47.226;39.702;2023-06-10T09:53:48;99976.06;;;25.54;37.90
52651;BME280;38537;47.226;39.702;2023-06-10T09:56:20;100049.66;;;26.02;38.27
52651;BME280;38537;47.226;39.702;2023-06-10T09:58:53;100036.47;;;26.15;38.05
52651;BME280;38537;47.226;39.702;2023-06-10T10:01:22;99940.44;;;25.66;37.86
52651;BME280;38537;47.226;39.702;2023-06-10T10:03:53;99929.84;;;25.56;37.74
52651;BME280;38537;47.226;39.702;2023-06-10T10:06:20;100019.19;;;26.26;37.98
52651;BME280;38537;47.226;39.702;2023-06-10T10:08:49;100023.22;;;26.39;37.47
52651;BME280;38537;47.226;39.702;2023-06-10T10:11:20;100030.59;;;26.37;37.60
52651;BME280;38537;47.226;39.702;2023-06-10T10:13:50;99913.47;;;25.67;37.16
52651;BME280;38537;47.226;39.702;2023-06-10T10:16:40;99928.94;;;25.73;37.28
52651;BME280;38537;47.226;39.702;2023-06-10T10:19:18;100008.53;;;26.34;37.04
52651;BME280;38537;47.226;39.702;2023-06-10T10:22:00;100026.78;;;26.47;36.81
52651;BME280;38537;47.226;39.702;2023-06-10T10:24:37;99949.22;;;25.89;37.32
52651;BME280;38537;47.226;39.702;2023-06-10T10:27:14;99985.28;;;26.21;37.64
52651;BME280;38537;47.226;39.702;2023-06-10T10:29:47;99970.50;;;26.33;37.76
52651;BME280;38537;47.226;39.702;2023-06-10T10:32:18;99990.47;;;26.40;37.49
52651;BME280;38537;47.226;39.702;2023-06-10T10:35:49;99994.38;;;26.57;37.64
52651;BME280;38537;47.226;39.702;2023-06-10T10:37:46;100006.28;;;26.52;37.24
52651;BME280;38537;47.226;39.702;2023-06-10T10:40:14;99983.19;;;26.32;36.96
52651;BME280;38537;47.226;39.702;2023-06-10T10:42:42;99971.75;;;26.25;37.58
52651;BME280;38537;47.226;39.702;2023-06-10T10:45:10;99962.66;;;26.41;37.54
52651;BME280;38537;47.226;39.702;2023-06-10T10:47:46;99976.38;;;26.56;37.21
52651;BME280;38537;47.226;39.702;2023-06-10T10:50:18;99973.75;;;26.69;36.66
52651;BME280;38537;47.226;39.702;2023-06-10T10:52:59;99946.88;;;26.59;36.22
52651;BME280;38537;47.226;39.702;2023-06-10T10:55:30;99963.38;;;26.82;36.59
52651;BME280;38537;47.226;39.702;2023-06-10T10:58:05;99977.88;;;27.02;35.57
52651;BME280;38537;47.226;39.702;2023-06-10T11:00:53;99959.50;;;27.00;35.96
52651;BME280;38537;47.226;39.702;2023-06-10T11:03:22;99956.06;;;27.08;35.93
52651;BME280;38537;47.226;39.702;2023-06-10T11:05:50;99908.81;;;26.89;35.76
52651;BME280;38537;47.226;39.702;2023-06-10T11:11:00;99951.13;;;27.12;34.97
52651;BME280;38537;47.226;39.702;2023-06-10T11:13:28;99919.16;;;27.14;34.40
52651;BME280;38537;47.226;39.702;2023-06-10T11:15:58;99928.00;;;27.26;35.07
52651;BME280;38537;47.226;39.702;2023-06-10T11:18:27;99930.53;;;27.21;33.89
52651;BME280;38537;47.226;39.702;2023-06-10T11:26:29;99934.03;;;27.32;33.12
52651;BME280;38537;47.226;39.702;2023-06-10T11:29:06;99949.78;;;27.47;32.27
52651;BME280;38537;47.226;39.702;2023-06-10T11:31:45;99959.50;;;27.53;31.29
52651;BME280;38537;47.226;39.702;2023-06-10T11:34:13;99923.66;;;27.42;31.06
52651;BME280;38537;47.226;39.702;2023-06-10T11:36:42;99925.94;;;27.50;31.09
52651;BME280;38537;47.226;39.702;2023-06-10T11:39:13;99918.66;;;27.46;30.87
52651;BME280;38537;47.226;39.702;2023-06-10T11:41:40;99867.69;;;27.30;31.02
52651;BME280;38537;47.226;39.702;2023-06-10T11:44:12;99921.50;;;27.73;31.11
52651;BME280;38537;47.226;39.702;2023-06-10T11:46:47;99889.78;;;27.60;31.74
52651;BME280;38537;47.226;39.702;2023-06-10T11:49:15;99900.31;;;27.67;30.39
52651;BME280;38537;47.226;39.702;2023-06-10T11:51:42;99907.63;;;27.71;30.66
52651;BME280;38537;47.226;39.702;2023-06-10T11:54:17;99915.66;;;27.80;29.69
52651;BME280;38537;47.226;39.702;2023-06-10T11:56:45;99910.34;;;28.02;31.03
52651;BME280;38537;47.226;39.702;2023-06-10T11:59:13;99895.19;;;28.01;30.49
52651;BME280;38537;47.226;39.702;2023-06-10T12:01:45;99907.56;;;28.18;29.75
52651;BME280;38537;47.226;39.702;2023-06-10T12:04:14;99890.63;;;28.04;29.72
52651;BME280;38537;47.226;39.702;2023-06-10T12:06:50;99894.59;;;27.90;28.87
52651;BME280;38537;47.226;39.702;2023-06-10T12:09:25;99869.81;;;27.76;29.27
52651;BME280;38537;47.226;39.702;2023-06-10T12:12:02;99900.59;;;27.95;29.23
52651;BME280;38537;47.226;39.702;2023-06-10T12:14:53;99890.75;;;27.96;29.28
52651;BME280;38537;47.226;39.702;2023-06-10T12:20:07;99895.56;;;28.03;28.39
52651;BME280;38537;47.226;39.702;2023-06-10T12:22:36;99883.75;;;27.97;28.59
52651;BME280;38537;47.226;39.702;2023-06-10T12:25:05;99867.50;;;27.91;28.21
52651;BME280;38537;47.226;39.702;2023-06-10T12:27:35;99846.78;;;27.80;27.52
52651;BME280;38537;47.226;39.702;2023-06-10T12:30:06;99846.16;;;27.92;28.05
52651;BME280;38537;47.226;39.702;2023-06-10T12:32:40;99857.03;;;28.01;27.91
52651;BME280;38537;47.226;39.702;2023-06-10T12:35:10;99875.16;;;28.17;27.76
52651;BME280;38537;47.226;39.702;2023-06-10T12:37:39;99844.25;;;28.05;28.05
52651;BME280;38537;47.226;39.702;2023-06-10T12:40:10;99851.63;;;28.06;28.27
52651;BME280;38537;47.226;39.702;2023-06-10T12:42:38;99881.13;;;28.30;28.14
52651;BME280;38537;47.226;39.702;2023-06-10T12:45:06;99865.38;;;28.15;28.97
52651;BME280;38537;47.226;39.702;2023-06-10T12:47:39;99846.59;;;27.90;29.43
52651;BME280;38537;47.226;39.702;2023-06-10T12:50:08;99815.50;;;27.66;30.17
52651;BME280;38537;47.226;39.702;2023-06-10T12:52:39;99852.34;;;27.90;30.45
52651;BME280;38537;47.226;39.702;2023-06-10T12:55:08;99882.50;;;27.98;30.13
52651;BME280;38537;47.226;39.702;2023-06-10T12:57:36;99881.91;;;27.87;28.80
52651;BME280;38537;47.226;39.702;2023-06-10T13:00:07;99843.59;;;27.74;28.48
52651;BME280;38537;47.226;39.702;2023-06-10T13:02:36;99853.22;;;27.87;28.77
52651;BME280;38537;47.226;39.702;2023-06-10T13:05:03;99879.41;;;27.89;28.24
52651;BME280;38537;47.226;39.702;2023-06-10T13:07:31;99848.09;;;27.75;28.80
52651;BME280;38537;47.226;39.702;2023-06-10T13:09:58;99854.47;;;27.86;28.59
52651;BME280;38537;47.226;39.702;2023-06-10T13:12:26;99863.66;;;27.97;28.91
52651;BME280;38537;47.226;39.702;2023-06-10T13:15:13;99851.44;;;27.93;29.28